Terminal Aerodrome Forecast
Issued by NWS Charleston, WV

Current Version | Previous Version | Graphics & Text | Print | Product List | Glossary On
Versions: 1 2 3 4 5 6 7 8 9 10 11 12 13 14 15 16 17 18 19 20 21 22 23 24 25 26 27 28 29 30 31
000
FTUS41 KRLX 140400 AAB
TAFBKW
TAF AMD
KBKW 140451Z 1405/1424 33004KT 5SM BR SCT009 BKN025
      TEMPO 1405/1408 6SM BR BKN009
     FM141500 14004KT P6SM SCT010
     FM141700 VRB03KT P6SM BKN012=

USA.gov is the U.S. government's official web portal to all federal, state and local government web resources and services.